createdAt,value
2023-05-02T00:00:12.413Z,0.00
2023-05-02T00:01:12.457Z,0.00
2023-05-02T00:02:12.393Z,0.00
2023-05-02T00:03:12.439Z,0.00
2023-05-02T00:04:12.471Z,0.00
2023-05-02T00:05:12.340Z,0.00
2023-05-02T00:06:12.385Z,0.00
2023-05-02T00:07:12.310Z,0.00
2023-05-02T00:08:12.311Z,0.00
2023-05-02T00:09:12.289Z,0.00
2023-05-02T00:10:12.277Z,0.00
2023-05-02T00:11:12.385Z,0.00
2023-05-02T00:12:12.256Z,0.00
2023-05-02T00:13:12.258Z,0.00
2023-05-02T00:14:12.230Z,0.00
2023-05-02T00:15:12.228Z,0.00
2023-05-02T00:16:12.207Z,0.00
2023-05-02T00:17:12.342Z,0.00
2023-05-02T00:18:12.267Z,0.00
2023-05-02T00:19:12.525Z,0.00
2023-05-02T00:20:12.191Z,0.00
2023-05-02T00:21:12.172Z,0.00
2023-05-02T00:22:12.250Z,0.00
2023-05-02T00:23:12.145Z,0.00
2023-05-02T00:24:12.149Z,0.00
2023-05-02T00:25:12.132Z,0.00
2023-05-02T00:26:12.145Z,0.00
2023-05-02T00:27:12.135Z,0.00
2023-05-02T00:28:12.078Z,0.00
2023-05-02T00:29:12.140Z,0.00
2023-05-02T00:30:12.061Z,0.00
2023-05-02T00:31:12.132Z,0.00
2023-05-02T00:32:12.074Z,0.00
2023-05-02T00:33:12.135Z,0.00
2023-05-02T00:34:12.044Z,0.00
2023-05-02T00:35:12.085Z,0.00
2023-05-02T00:36:12.031Z,0.00
2023-05-02T00:37:11.994Z,0.00
2023-05-02T00:38:11.987Z,0.00
2023-05-02T00:39:11.989Z,0.00
2023-05-02T00:40:11.981Z,0.00
2023-05-02T00:41:11.950Z,0.00
2023-05-02T00:42:11.989Z,0.00
2023-05-02T00:43:11.950Z,0.00
2023-05-02T00:44:11.921Z,0.00
2023-05-02T00:45:11.949Z,0.00
2023-05-02T00:46:11.908Z,0.00
2023-05-02T00:47:11.935Z,0.00
2023-05-02T00:48:12.034Z,0.00
2023-05-02T00:49:11.883Z,0.00
2023-05-02T00:50:11.868Z,0.00
2023-05-02T00:51:11.853Z,0.00
2023-05-02T00:52:11.851Z,0.00
2023-05-02T00:53:11.868Z,0.00
2023-05-02T00:54:11.813Z,0.00
2023-05-02T00:55:11.811Z,0.00
2023-05-02T00:56:11.797Z,0.00
2023-05-02T00:57:11.826Z,0.00
2023-05-02T00:58:11.802Z,0.00
2023-05-02T00:59:11.796Z,0.00
2023-05-02T01:00:11.758Z,0.00
2023-05-02T01:01:11.828Z,0.00
2023-05-02T01:02:11.920Z,0.00
2023-05-02T01:03:11.909Z,0.00
2023-05-02T01:04:11.845Z,0.00
2023-05-02T01:05:11.711Z,0.00
2023-05-02T01:06:11.734Z,0.00
2023-05-02T01:07:11.671Z,0.00
2023-05-02T01:08:11.688Z,0.00
2023-05-02T01:09:11.682Z,0.00
2023-05-02T01:10:11.680Z,0.00
2023-05-02T01:11:11.643Z,0.00
2023-05-02T01:12:11.610Z,0.00
2023-05-02T01:13:11.830Z,0.00
2023-05-02T01:14:11.609Z,0.00
2023-05-02T01:15:11.601Z,0.00
2023-05-02T01:16:11.657Z,0.00
2023-05-02T01:17:11.666Z,0.00
2023-05-02T01:18:11.692Z,0.00
2023-05-02T01:19:11.564Z,0.00
2023-05-02T01:20:11.533Z,0.00
2023-05-02T01:21:11.530Z,0.00
2023-05-02T01:22:11.498Z,0.00
2023-05-02T01:23:11.502Z,0.00
2023-05-02T01:24:11.483Z,0.00
2023-05-02T01:25:11.497Z,0.00
2023-05-02T01:26:11.472Z,0.00
2023-05-02T01:27:11.511Z,0.00
2023-05-02T01:28:11.437Z,0.00
2023-05-02T01:29:11.452Z,0.00
2023-05-02T01:30:11.410Z,0.00
2023-05-02T01:31:11.418Z,0.00
2023-05-02T01:32:11.422Z,0.00
2023-05-02T01:33:11.456Z,0.00
2023-05-02T01:34:11.387Z,0.00
2023-05-02T01:35:11.380Z,0.00
2023-05-02T01:36:11.351Z,0.00
2023-05-02T01:37:11.357Z,0.00
2023-05-02T01:38:11.372Z,0.00
2023-05-02T01:39:11.323Z,0.00
2023-05-02T01:40:11.308Z,0.00
2023-05-02T01:41:11.306Z,0.00
2023-05-02T01:42:11.325Z,0.00
2023-05-02T01:43:11.294Z,0.00
2023-05-02T01:44:11.303Z,0.00
2023-05-02T01:45:11.272Z,0.00
2023-05-02T01:46:11.334Z,0.00
2023-05-02T01:47:11.350Z,0.00
2023-05-02T01:48:11.312Z,0.00
2023-05-02T01:49:11.244Z,0.00
2023-05-02T01:50:11.211Z,0.00
2023-05-02T01:51:11.227Z,0.00
2023-05-02T01:52:11.215Z,0.00
2023-05-02T01:53:11.201Z,0.00
2023-05-02T01:54:11.161Z,0.00
2023-05-02T01:55:11.171Z,0.00
2023-05-02T01:56:11.139Z,0.00
2023-05-02T01:57:11.149Z,0.00
2023-05-02T01:58:11.125Z,0.00
2023-05-02T01:59:11.123Z,0.00
2023-05-02T02:00:11.107Z,0.00
2023-05-02T02:01:11.190Z,0.00
2023-05-02T02:02:11.101Z,0.00
2023-05-02T02:03:11.106Z,0.00
2023-05-02T02:04:11.117Z,0.00
2023-05-02T02:05:11.056Z,0.00
2023-05-02T02:06:11.072Z,0.00
2023-05-02T02:07:11.046Z,0.00
2023-05-02T02:08:11.037Z,0.00
2023-05-02T02:09:11.020Z,0.00
2023-05-02T02:10:11.026Z,0.00
2023-05-02T02:11:10.998Z,0.00
2023-05-02T02:12:10.985Z,0.00
2023-05-02T02:13:10.966Z,0.00
2023-05-02T02:14:10.955Z,0.00
2023-05-02T02:15:11.153Z,0.00
2023-05-02T02:16:10.966Z,0.00
2023-05-02T02:17:10.974Z,0.00
2023-05-02T02:18:10.975Z,0.00
2023-05-02T02:19:10.944Z,0.00
2023-05-02T02:20:10.885Z,0.00
2023-05-02T02:21:10.886Z,0.00
2023-05-02T02:22:10.860Z,0.00
2023-05-02T02:23:10.875Z,0.00
2023-05-02T02:24:10.872Z,0.00
2023-05-02T02:25:10.861Z,0.00
2023-05-02T02:26:10.811Z,0.00
2023-05-02T02:27:10.830Z,0.00
2023-05-02T02:28:10.812Z,0.00
2023-05-02T02:29:10.797Z,0.00
2023-05-02T02:30:10.775Z,0.00
2023-05-02T02:31:10.802Z,0.00
2023-05-02T02:32:10.762Z,0.00
2023-05-02T02:33:10.896Z,0.00
2023-05-02T02:34:10.749Z,0.00
2023-05-02T02:35:10.750Z,0.00
2023-05-02T02:36:10.712Z,0.00
2023-05-02T02:37:10.705Z,0.00
2023-05-02T02:38:10.688Z,0.00
2023-05-02T02:39:10.690Z,0.00
2023-05-02T02:40:10.676Z,0.00
2023-05-02T02:41:10.675Z,0.00
2023-05-02T02:42:10.655Z,0.00
2023-05-02T02:43:10.673Z,0.00
2023-05-02T02:44:12.940Z,0.00
2023-05-02T02:45:10.624Z,0.00
2023-05-02T02:46:10.699Z,0.00
2023-05-02T02:47:10.618Z,0.00
2023-05-02T02:48:10.635Z,0.00
2023-05-02T02:49:10.588Z,0.00
2023-05-02T02:50:10.578Z,0.00
2023-05-02T02:51:10.585Z,0.00
2023-05-02T02:52:10.570Z,0.00
2023-05-02T02:53:10.537Z,0.00
2023-05-02T02:54:22.851Z,0.00
2023-05-02T02:55:11.650Z,0.00
2023-05-02T02:56:10.641Z,0.00
2023-05-02T02:57:10.509Z,0.00
2023-05-02T02:58:10.525Z,0.00
2023-05-02T02:59:10.491Z,0.00
2023-05-02T03:00:10.504Z,0.00
2023-05-02T03:01:10.490Z,0.00
2023-05-02T03:02:10.607Z,0.00
2023-05-02T03:03:10.581Z,0.00
2023-05-02T03:04:10.448Z,0.00
2023-05-02T03:05:10.431Z,0.00
2023-05-02T03:06:10.401Z,0.00
2023-05-02T03:07:10.402Z,0.00
2023-05-02T03:08:10.370Z,0.00
2023-05-02T03:09:10.354Z,0.00
2023-05-02T03:10:10.353Z,0.00
2023-05-02T03:11:10.363Z,0.00
2023-05-02T03:12:10.326Z,0.00
2023-05-02T03:13:10.341Z,0.00
2023-05-02T03:14:10.375Z,0.00
2023-05-02T03:15:10.315Z,0.00
2023-05-02T03:16:10.328Z,0.00
2023-05-02T03:17:10.434Z,0.00
2023-05-02T03:18:10.605Z,0.00
2023-05-02T03:19:10.254Z,0.00
2023-05-02T03:20:10.241Z,0.00
2023-05-02T03:21:10.233Z,0.00
2023-05-02T03:22:10.219Z,0.00
2023-05-02T03:23:10.232Z,0.00
2023-05-02T03:24:10.211Z,0.00
2023-05-02T03:25:10.581Z,4.00
2023-05-02T03:26:10.175Z,4.00
2023-05-02T03:27:10.236Z,0.00
2023-05-02T03:28:10.170Z,0.00
2023-05-02T03:29:10.135Z,0.00
2023-05-02T03:30:10.136Z,4.00
2023-05-02T03:31:10.173Z,4.00
2023-05-02T03:32:10.312Z,0.00
2023-05-02T03:33:10.286Z,4.00
2023-05-02T03:34:10.106Z,4.00
2023-05-02T03:35:10.095Z,4.00
2023-05-02T03:36:10.071Z,4.00
2023-05-02T03:37:10.062Z,4.00
2023-05-02T03:38:10.066Z,4.00
2023-05-02T03:39:10.073Z,8.00
2023-05-02T03:40:10.064Z,8.00
2023-05-02T03:41:10.031Z,4.00
2023-05-02T03:42:10.046Z,4.00
2023-05-02T03:43:09.999Z,4.00
2023-05-02T03:44:10.065Z,8.00
2023-05-02T03:45:09.975Z,8.00
2023-05-02T03:46:09.980Z,12.00
2023-05-02T03:47:09.978Z,12.00
2023-05-02T03:48:10.163Z,16.00
2023-05-02T03:49:09.941Z,20.00
2023-05-02T03:50:09.960Z,20.00
2023-05-02T03:51:10.617Z,24.00
2023-05-02T03:52:09.919Z,28.00
2023-05-02T03:53:09.879Z,28.00
2023-05-02T03:54:09.892Z,28.00
2023-05-02T03:55:09.853Z,28.00
2023-05-02T03:56:09.856Z,28.00
2023-05-02T03:57:09.824Z,32.00
2023-05-02T03:58:09.831Z,36.00
2023-05-02T03:59:09.812Z,36.00
2023-05-02T04:00:09.802Z,36.00
2023-05-02T04:01:09.809Z,40.00
2023-05-02T04:02:09.886Z,40.00
2023-05-02T04:03:09.780Z,36.00
2023-05-02T04:04:09.803Z,36.00
2023-05-02T04:05:09.759Z,40.00
2023-05-02T04:06:09.835Z,44.00
2023-05-02T04:07:09.726Z,64.00
2023-05-02T04:08:09.721Z,92.00
2023-05-02T04:09:09.735Z,128.00
2023-05-02T04:10:09.709Z,164.00
2023-05-02T04:11:09.691Z,196.00
2023-05-02T04:12:09.717Z,212.00
2023-05-02T04:13:09.665Z,228.00
2023-05-02T04:14:09.694Z,224.00
2023-05-02T04:15:09.641Z,244.00
2023-05-02T04:16:09.675Z,260.00
2023-05-02T04:17:09.710Z,232.00
2023-05-02T04:18:09.724Z,208.00
2023-05-02T04:19:09.715Z,212.00
2023-05-02T04:20:09.624Z,232.00
2023-05-02T04:21:09.672Z,248.00
2023-05-02T04:22:09.582Z,252.00
2023-05-02T04:23:09.548Z,276.00
2023-05-02T04:24:09.542Z,272.00
2023-05-02T04:25:09.561Z,236.00
2023-05-02T04:26:09.569Z,212.00
2023-05-02T04:27:09.513Z,200.00
2023-05-02T04:28:09.501Z,192.00
2023-05-02T04:29:09.511Z,188.00
2023-05-02T04:30:09.493Z,164.00
2023-05-02T04:31:09.483Z,168.00
2023-05-02T04:32:09.466Z,184.00
2023-05-02T04:33:09.473Z,200.00
2023-05-02T04:34:09.490Z,212.00
2023-05-02T04:35:09.441Z,224.00
2023-05-02T04:36:09.424Z,208.00
2023-05-02T04:37:09.437Z,224.00
2023-05-02T04:38:09.403Z,228.00
2023-05-02T04:39:09.418Z,228.00
2023-05-02T04:40:09.376Z,224.00
2023-05-02T04:41:09.709Z,216.00
2023-05-02T04:42:09.378Z,176.00
2023-05-02T04:43:09.326Z,152.00
2023-05-02T04:44:09.354Z,168.00
2023-05-02T04:45:09.326Z,196.00
2023-05-02T04:46:09.407Z,216.00
2023-05-02T04:47:09.398Z,252.00
2023-05-02T04:48:09.356Z,316.00
2023-05-02T04:49:09.277Z,388.00
2023-05-02T04:50:09.342Z,468.00
2023-05-02T04:51:09.254Z,516.00
2023-05-02T04:52:09.299Z,552.00
2023-05-02T04:53:09.240Z,584.00
2023-05-02T04:54:09.241Z,616.00
2023-05-02T04:55:09.244Z,608.00
2023-05-02T04:56:09.219Z,616.00
2023-05-02T04:57:09.182Z,588.00
2023-05-02T04:58:09.208Z,552.00
2023-05-02T04:59:09.184Z,508.00
2023-05-02T05:00:09.179Z,448.00
2023-05-02T05:01:09.221Z,400.00
2023-05-02T05:02:09.220Z,404.00
2023-05-02T05:03:09.218Z,416.00
2023-05-02T05:04:09.332Z,444.00
2023-05-02T05:05:09.167Z,484.00
2023-05-02T05:06:09.116Z,524.00
2023-05-02T05:07:09.099Z,556.00
2023-05-02T05:08:09.101Z,524.00
2023-05-02T05:09:09.098Z,524.00
2023-05-02T05:10:09.096Z,588.00
2023-05-02T05:11:09.082Z,572.00
2023-05-02T05:12:09.044Z,564.00
2023-05-02T05:13:09.050Z,544.00
2023-05-02T05:14:09.020Z,532.00
2023-05-02T05:15:09.023Z,560.00
2023-05-02T05:16:09.008Z,604.00
2023-05-02T05:17:08.984Z,532.00
2023-05-02T05:18:09.072Z,388.00
2023-05-02T05:19:09.003Z,312.00
2023-05-02T05:20:09.568Z,320.00
2023-05-02T05:21:09.070Z,320.00
2023-05-02T05:22:08.938Z,364.00
2023-05-02T05:23:08.904Z,408.00
2023-05-02T05:24:08.915Z,480.00
2023-05-02T05:25:08.899Z,524.00
2023-05-02T05:26:08.956Z,548.00
2023-05-02T05:27:08.868Z,572.00
2023-05-02T05:28:08.871Z,620.00
2023-05-02T05:29:08.844Z,720.00
2023-05-02T05:30:08.866Z,804.00
2023-05-02T05:31:08.885Z,872.00
2023-05-02T05:33:06.998Z,872.00
2023-05-02T05:34:04.155Z,888.00
2023-05-02T05:35:04.111Z,932.00
2023-05-02T05:36:04.095Z,940.00
2023-05-02T05:37:04.100Z,936.00
2023-05-02T05:38:04.068Z,952.00
2023-05-02T05:39:04.057Z,932.00
2023-05-02T05:40:04.249Z,928.00
2023-05-02T05:41:04.055Z,880.00
2023-05-02T05:42:04.013Z,824.00
2023-05-02T05:43:04.022Z,768.00
2023-05-02T05:44:04.007Z,744.00
2023-05-02T05:45:04.010Z,780.00
2023-05-02T05:46:04.015Z,792.00
2023-05-02T05:47:04.028Z,788.00
2023-05-02T05:48:04.030Z,788.00
2023-05-02T05:49:03.973Z,792.00
2023-05-02T05:50:04.069Z,788.00
2023-05-02T05:51:03.994Z,788.00
2023-05-02T05:52:04.006Z,772.00
2023-05-02T05:53:03.984Z,768.00
2023-05-02T05:54:04.872Z,760.00
2023-05-02T05:55:03.935Z,760.00
2023-05-02T05:56:03.874Z,884.00
2023-05-02T05:57:03.894Z,936.00
2023-05-02T05:58:03.862Z,1040.00
2023-05-02T05:59:03.893Z,1156.00
2023-05-02T06:00:04.244Z,1304.00
2023-05-02T06:01:03.819Z,1292.00
2023-05-02T06:02:03.863Z,1300.00
2023-05-02T06:03:04.398Z,1256.00
2023-05-02T06:04:03.918Z,1180.00
2023-05-02T06:05:04.032Z,1248.00
2023-05-02T06:06:03.890Z,1380.00
2023-05-02T06:07:03.764Z,1556.00
2023-05-02T06:08:03.812Z,1612.00
2023-05-02T06:09:03.748Z,1620.00
2023-05-02T06:10:03.735Z,1536.00
2023-05-02T06:11:03.979Z,1512.00
2023-05-02T06:12:03.756Z,1544.00
2023-05-02T06:13:03.720Z,1676.00
2023-05-02T06:14:03.710Z,1848.00
2023-05-02T06:15:03.705Z,1932.00
2023-05-02T06:16:03.692Z,1916.00
2023-05-02T06:17:03.704Z,1972.00
2023-05-02T06:18:03.773Z,2064.00
2023-05-02T06:19:03.637Z,2208.00
2023-05-02T06:20:03.643Z,2404.00
2023-05-02T06:21:03.602Z,2600.00
2023-05-02T06:22:03.616Z,2796.00
2023-05-02T06:23:03.785Z,2868.00
2023-05-02T06:24:03.597Z,2872.00
2023-05-02T06:25:03.581Z,3000.00
2023-05-02T06:26:03.573Z,3212.00
2023-05-02T06:27:03.553Z,3560.00
2023-05-02T06:28:03.549Z,3892.00
2023-05-02T06:29:03.530Z,4028.00
2023-05-02T06:30:04.027Z,3996.00
2023-05-02T06:31:03.590Z,3920.00
2023-05-02T06:32:03.640Z,4092.00
2023-05-02T06:33:03.554Z,4524.00
2023-05-02T06:34:03.494Z,4668.00
2023-05-02T06:35:03.482Z,4524.00
2023-05-02T06:36:03.463Z,4476.00
2023-05-02T06:37:03.428Z,4704.00
2023-05-02T06:38:03.453Z,5024.00
2023-05-02T06:39:03.408Z,5328.00
2023-05-02T06:40:03.862Z,5532.00
2023-05-02T06:41:03.394Z,5696.00
2023-05-02T06:42:03.389Z,5804.00
2023-05-02T06:43:03.383Z,5748.00
2023-05-02T06:44:03.386Z,5820.00
2023-05-02T06:45:03.340Z,6308.00
2023-05-02T06:46:03.412Z,7020.00
2023-05-02T06:47:03.379Z,7432.00
2023-05-02T06:48:03.361Z,7512.00
2023-05-02T06:49:03.310Z,7868.00
2023-05-02T06:50:03.546Z,8164.00
2023-05-02T06:51:03.321Z,8272.00
2023-05-02T06:52:03.297Z,8240.00
2023-05-02T06:53:03.254Z,7956.00
2023-05-02T06:54:04.280Z,7468.00
2023-05-02T06:55:03.238Z,7196.00
2023-05-02T06:56:03.258Z,6924.00
2023-05-02T06:57:03.221Z,6384.00
2023-05-02T06:58:03.248Z,5944.00
2023-05-02T06:59:03.302Z,6140.00
2023-05-02T07:00:03.547Z,6436.00
2023-05-02T07:01:03.259Z,6256.00
2023-05-02T07:02:05.148Z,6288.00
2023-05-02T07:03:03.206Z,6660.00
2023-05-02T07:04:03.222Z,7116.00
2023-05-02T07:05:03.126Z,7200.00
2023-05-02T07:06:03.192Z,7380.00
2023-05-02T07:07:03.127Z,8016.00
2023-05-02T07:08:03.126Z,8388.00
2023-05-02T07:09:03.119Z,8892.00
2023-05-02T07:10:03.300Z,9176.00
2023-05-02T07:11:03.087Z,9392.00
2023-05-02T07:12:05.270Z,9532.00
2023-05-02T07:13:03.051Z,9536.00
2023-05-02T07:14:03.068Z,9496.00
2023-05-02T07:15:04.006Z,9316.00
2023-05-02T07:16:03.153Z,8744.00
2023-05-02T07:17:03.080Z,8368.00
2023-05-02T07:18:03.048Z,8708.00
2023-05-02T07:19:02.984Z,8860.00
2023-05-02T07:20:03.399Z,8524.00
2023-05-02T07:21:02.980Z,8004.00
2023-05-02T07:22:02.994Z,7276.00
2023-05-02T07:23:02.977Z,6800.00
2023-05-02T07:24:02.963Z,6692.00
2023-05-02T07:25:03.931Z,6636.00
2023-05-02T07:26:05.581Z,6664.00
2023-05-02T07:27:02.906Z,6872.00
2023-05-02T07:28:02.907Z,7112.00
2023-05-02T07:29:02.885Z,7396.00
2023-05-02T07:30:03.072Z,7672.00
2023-05-02T07:31:02.872Z,7988.00
2023-05-02T07:32:02.918Z,8228.00
2023-05-02T07:33:03.879Z,8280.00
2023-05-02T07:34:02.839Z,8304.00
2023-05-02T07:35:02.842Z,8404.00
2023-05-02T07:36:02.885Z,8700.00
2023-05-02T07:37:02.797Z,8852.00
2023-05-02T07:38:02.808Z,8948.00
2023-05-02T07:39:02.774Z,9120.00
2023-05-02T07:40:03.154Z,8752.00
2023-05-02T07:41:02.785Z,8052.00
2023-05-02T07:42:02.763Z,7588.00
2023-05-02T07:43:02.742Z,7456.00
2023-05-02T07:44:02.741Z,7580.00
2023-05-02T07:45:02.720Z,7724.00
2023-05-02T07:46:02.757Z,7404.00
2023-05-02T07:47:02.704Z,7048.00
2023-05-02T07:48:02.721Z,6800.00
2023-05-02T07:49:02.662Z,6760.00
2023-05-02T07:50:02.940Z,6624.00
2023-05-02T07:51:02.772Z,6608.00
2023-05-02T07:52:02.636Z,7124.00
2023-05-02T07:53:02.650Z,7916.00
2023-05-02T07:54:02.640Z,8324.00
2023-05-02T07:55:02.605Z,8280.00
2023-05-02T07:56:02.645Z,7804.00
2023-05-02T07:57:02.617Z,7300.00
2023-05-02T07:58:02.574Z,6932.00
2023-05-02T07:59:03.697Z,6504.00
2023-05-02T08:00:03.057Z,6108.00
2023-05-02T08:01:02.537Z,5812.00
2023-05-02T08:02:02.550Z,5488.00
2023-05-02T08:03:02.774Z,5132.00
2023-05-02T08:04:02.722Z,4824.00
2023-05-02T08:05:02.560Z,4624.00
2023-05-02T08:06:02.572Z,4484.00
2023-05-02T08:07:02.464Z,4420.00
2023-05-02T08:08:02.494Z,4412.00
2023-05-02T08:09:02.458Z,4440.00
2023-05-02T08:10:02.866Z,4484.00
2023-05-02T08:11:02.451Z,4460.00
2023-05-02T08:12:02.432Z,4428.00
2023-05-02T08:13:02.409Z,4408.00
2023-05-02T08:14:02.430Z,4404.00
2023-05-02T08:15:02.396Z,4352.00
2023-05-02T08:16:02.435Z,4272.00
2023-05-02T08:17:02.439Z,4280.00
2023-05-02T08:18:02.553Z,4392.00
2023-05-02T08:19:02.344Z,4628.00
2023-05-02T08:20:02.688Z,5104.00
2023-05-02T08:21:02.313Z,5536.00
2023-05-02T08:22:02.335Z,5672.00
2023-05-02T08:23:02.309Z,5636.00
2023-05-02T08:24:02.308Z,5720.00
2023-05-02T08:25:02.275Z,5848.00
2023-05-02T08:26:02.290Z,5968.00
2023-05-02T08:27:02.381Z,6136.00
2023-05-02T08:28:02.274Z,6612.00
2023-05-02T08:29:02.251Z,7752.00
2023-05-02T08:30:02.508Z,9144.00
2023-05-02T08:31:02.220Z,10272.00
2023-05-02T08:32:02.415Z,10928.00
2023-05-02T08:33:02.292Z,11120.00
2023-05-02T08:34:02.218Z,10540.00
2023-05-02T08:35:02.168Z,9748.00
2023-05-02T08:36:02.188Z,9364.00
2023-05-02T08:37:02.157Z,9620.00
2023-05-02T08:38:02.313Z,9840.00
2023-05-02T08:39:02.149Z,9524.00
2023-05-02T08:40:02.494Z,8968.00
2023-05-02T08:41:02.124Z,8572.00
2023-05-02T08:42:02.121Z,8244.00
2023-05-02T08:43:02.100Z,7912.00
2023-05-02T08:44:02.102Z,7744.00
2023-05-02T08:45:02.082Z,7656.00
2023-05-02T08:46:02.085Z,7660.00
2023-05-02T08:47:02.101Z,7840.00
2023-05-02T08:48:02.075Z,7972.00
2023-05-02T08:49:02.023Z,7872.00
2023-05-02T08:50:02.593Z,7680.00
2023-05-02T08:51:01.998Z,7892.00
2023-05-02T08:52:02.019Z,8508.00
2023-05-02T08:53:01.976Z,9104.00
2023-05-02T08:54:01.998Z,9304.00
2023-05-02T08:55:02.479Z,9200.00
2023-05-02T08:56:01.945Z,8932.00
2023-05-02T08:57:02.914Z,9184.00
2023-05-02T08:58:01.963Z,10008.00
2023-05-02T08:59:01.904Z,11040.00
2023-05-02T09:00:01.929Z,11896.00
2023-05-02T09:01:01.906Z,12288.00
2023-05-02T09:02:01.906Z,12172.00
2023-05-02T09:03:01.917Z,11896.00
2023-05-02T09:04:01.884Z,11752.00
2023-05-02T09:05:02.259Z,11812.00
2023-05-02T09:06:01.944Z,12080.00
2023-05-02T09:07:01.832Z,12824.00
2023-05-02T09:08:01.834Z,13856.00
2023-05-02T09:09:01.817Z,14632.00
2023-05-02T09:10:01.805Z,15200.00
2023-05-02T09:11:01.839Z,15136.00
2023-05-02T09:12:01.876Z,15680.00
2023-05-02T09:13:01.788Z,15840.00
2023-05-02T09:14:01.839Z,15328.00
2023-05-02T09:15:01.811Z,14856.00
2023-05-02T09:16:01.761Z,13848.00
2023-05-02T09:17:01.756Z,12588.00
2023-05-02T09:18:01.756Z,11824.00
2023-05-02T09:19:01.745Z,11072.00
2023-05-02T09:20:01.695Z,10128.00
2023-05-02T09:21:01.664Z,9432.00
2023-05-02T09:22:01.676Z,8904.00
2023-05-02T09:23:01.661Z,8588.00
2023-05-02T09:24:01.697Z,8484.00
2023-05-02T09:25:01.914Z,8476.00
2023-05-02T09:26:01.650Z,8508.00
2023-05-02T09:27:01.646Z,8692.00
2023-05-02T09:28:01.842Z,9148.00
2023-05-02T09:29:01.580Z,9944.00
2023-05-02T09:30:01.580Z,10896.00
2023-05-02T09:31:01.610Z,11544.00
2023-05-02T09:32:01.585Z,11872.00
2023-05-02T09:33:01.574Z,12468.00
2023-05-02T09:34:01.548Z,12900.00
2023-05-02T09:35:01.760Z,12832.00
2023-05-02T09:36:01.521Z,12028.00
2023-05-02T09:37:01.543Z,10960.00
2023-05-02T09:38:01.565Z,9968.00
2023-05-02T09:39:01.479Z,9516.00
2023-05-02T09:40:01.487Z,9596.00
2023-05-02T09:41:01.447Z,9984.00
2023-05-02T09:42:01.456Z,10612.00
2023-05-02T09:43:01.479Z,11376.00
2023-05-02T09:44:01.451Z,11864.00
2023-05-02T09:45:01.634Z,12260.00
2023-05-02T09:46:01.496Z,12248.00
2023-05-02T09:47:01.395Z,11860.00
2023-05-02T09:48:01.414Z,11128.00
2023-05-02T09:49:01.377Z,10316.00
2023-05-02T09:50:01.378Z,9688.00
2023-05-02T09:51:01.360Z,9272.00
2023-05-02T09:52:01.322Z,9132.00
2023-05-02T09:53:01.342Z,9324.00
2023-05-02T09:54:01.331Z,9668.00
2023-05-02T09:55:01.513Z,9832.00
2023-05-02T09:56:01.353Z,9908.00
2023-05-02T09:57:01.302Z,10000.00
2023-05-02T09:58:01.290Z,10100.00
2023-05-02T09:59:01.293Z,10128.00
2023-05-02T10:00:01.271Z,10360.00
2023-05-02T10:01:01.245Z,10836.00
2023-05-02T10:02:01.291Z,11304.00
2023-05-02T10:03:01.277Z,11836.00
2023-05-02T10:04:01.270Z,12204.00
2023-05-02T10:05:01.452Z,12436.00
2023-05-02T10:06:01.262Z,12476.00
2023-05-02T10:07:01.205Z,12136.00
2023-05-02T10:08:01.182Z,11724.00
2023-05-02T10:09:01.141Z,11468.00
2023-05-02T10:10:01.166Z,11396.00
2023-05-02T10:11:01.146Z,11552.00
2023-05-02T10:12:01.122Z,12312.00
2023-05-02T10:13:01.123Z,13624.00
2023-05-02T10:14:01.184Z,15360.00
2023-05-02T10:15:01.463Z,16896.00
2023-05-02T10:16:01.151Z,18016.00
2023-05-02T10:17:01.129Z,18944.00
2023-05-02T10:18:01.169Z,20416.00
2023-05-02T10:19:01.067Z,21792.00
2023-05-02T10:20:01.050Z,23040.00
2023-05-02T10:21:01.048Z,24160.00
2023-05-02T10:22:01.024Z,25184.00
2023-05-02T10:23:01.037Z,24896.00
2023-05-02T10:24:01.010Z,23840.00
2023-05-02T10:25:01.332Z,22816.00
2023-05-02T10:26:00.963Z,22208.00
2023-05-02T10:27:00.984Z,21696.00
2023-05-02T10:28:00.956Z,21600.00
2023-05-02T10:29:00.969Z,20960.00
2023-05-02T10:30:01.225Z,20928.00
2023-05-02T10:31:00.962Z,20128.00
2023-05-02T10:32:00.986Z,18368.00
2023-05-02T10:33:00.947Z,15936.00
2023-05-02T10:34:00.904Z,13760.00
2023-05-02T10:35:01.143Z,12512.00
2023-05-02T10:36:00.880Z,11924.00
2023-05-02T10:37:00.881Z,11920.00
2023-05-02T10:38:00.857Z,12192.00
2023-05-02T10:39:01.004Z,12728.00
2023-05-02T10:40:00.824Z,13544.00
2023-05-02T10:41:00.827Z,14156.00
2023-05-02T10:42:00.826Z,14516.00
2023-05-02T10:43:00.819Z,14168.00
2023-05-02T10:44:00.791Z,13740.00
2023-05-02T10:45:01.093Z,13608.00
2023-05-02T10:46:00.752Z,13836.00
2023-05-02T10:47:00.884Z,14244.00
2023-05-02T10:48:00.754Z,15040.00
2023-05-02T10:49:00.768Z,15616.00
2023-05-02T10:50:00.710Z,15808.00
2023-05-02T10:51:00.706Z,16032.00
2023-05-02T10:52:00.698Z,16288.00
2023-05-02T10:53:00.701Z,16320.00
2023-05-02T10:54:00.700Z,16128.00
2023-05-02T10:55:00.947Z,16032.00
2023-05-02T10:56:00.681Z,16352.00
2023-05-02T10:57:00.645Z,17248.00
2023-05-02T10:58:00.629Z,18272.00
2023-05-02T10:59:00.626Z,19168.00
2023-05-02T11:00:00.644Z,19744.00
2023-05-02T11:01:00.656Z,20672.00
2023-05-02T11:02:00.648Z,21664.00
2023-05-02T11:03:00.757Z,22880.00
2023-05-02T11:04:00.579Z,23264.00
2023-05-02T11:05:00.806Z,24864.00
2023-05-02T11:06:00.600Z,25728.00
2023-05-02T11:07:00.575Z,27072.00
2023-05-02T11:08:00.508Z,31488.00
2023-05-02T11:09:00.528Z,28672.00
2023-05-02T11:10:00.512Z,24160.00
2023-05-02T11:11:00.507Z,24352.00
2023-05-02T11:12:00.476Z,26080.00
2023-05-02T11:13:00.488Z,35424.00
2023-05-02T11:14:00.470Z,25984.00
2023-05-02T11:15:00.759Z,24544.00
2023-05-02T11:16:00.457Z,24864.00
2023-05-02T11:17:00.599Z,25696.00
2023-05-02T11:18:00.497Z,25984.00
2023-05-02T11:19:00.437Z,25952.00
2023-05-02T11:20:00.406Z,27296.00
2023-05-02T11:21:00.405Z,29504.00
2023-05-02T11:22:00.359Z,33280.00
2023-05-02T11:23:00.411Z,33536.00
2023-05-02T11:24:00.328Z,24960.00
2023-05-02T11:25:00.740Z,23648.00
2023-05-02T11:26:00.332Z,23264.00
2023-05-02T11:27:00.324Z,22624.00
2023-05-02T11:28:00.309Z,21856.00
2023-05-02T11:29:00.305Z,20832.00
2023-05-02T11:30:00.303Z,20128.00
2023-05-02T11:31:00.293Z,19744.00
2023-05-02T11:32:00.410Z,19616.00
2023-05-02T11:33:00.336Z,19968.00
2023-05-02T11:34:00.236Z,20896.00
2023-05-02T11:35:00.593Z,21568.00
2023-05-02T11:36:00.237Z,21760.00
2023-05-02T11:37:00.224Z,21408.00
2023-05-02T11:38:00.196Z,22016.00
2023-05-02T11:39:00.223Z,23168.00
2023-05-02T11:40:00.180Z,24224.00
2023-05-02T11:41:00.266Z,25152.00
2023-05-02T11:42:00.202Z,24768.00
2023-05-02T11:43:00.227Z,24864.00
2023-05-02T11:44:00.158Z,28192.00
2023-05-02T11:45:00.415Z,25472.00
2023-05-02T11:46:00.407Z,27264.00
2023-05-02T11:47:00.145Z,24576.00
2023-05-02T11:48:00.192Z,24384.00
2023-05-02T11:49:00.129Z,23264.00
2023-05-02T11:50:00.118Z,22624.00
2023-05-02T11:51:00.095Z,24800.00
2023-05-02T11:52:00.033Z,24064.00
2023-05-02T11:53:00.076Z,22240.00
2023-05-02T11:54:00.027Z,52352.00
2023-05-02T11:55:00.249Z,65952.00
2023-05-02T11:56:00.069Z,62304.00
2023-05-02T11:57:00.002Z,63264.00
2023-05-02T11:57:59.998Z,64896.00
2023-05-02T11:59:00.003Z,65856.00
2023-05-02T11:59:59.988Z,66112.00
2023-05-02T12:00:59.964Z,65888.00
2023-05-02T12:01:59.970Z,35008.00
2023-05-02T12:03:00.148Z,25120.00
2023-05-02T12:03:59.934Z,24352.00
2023-05-02T12:05:00.221Z,23968.00
2023-05-02T12:05:59.998Z,22720.00
2023-05-02T12:06:59.978Z,22176.00
2023-05-02T12:07:59.876Z,22016.00
2023-05-02T12:08:59.907Z,21824.00
2023-05-02T12:09:59.852Z,23680.00
2023-05-02T12:10:59.878Z,22144.00
2023-05-02T12:11:59.864Z,22240.00
2023-05-02T12:12:59.855Z,24384.00
2023-05-02T12:13:59.814Z,57760.00
2023-05-02T12:14:59.985Z,64768.00
2023-05-02T12:16:00.536Z,63520.00
2023-05-02T12:16:59.794Z,66240.00
2023-05-02T12:17:59.842Z,66848.00
2023-05-02T12:18:59.776Z,65856.00
2023-05-02T12:19:59.768Z,67552.00
2023-05-02T12:20:59.749Z,61952.00
2023-05-02T12:21:59.742Z,60192.00
2023-05-02T12:22:59.740Z,37152.00
2023-05-02T12:23:59.691Z,42368.00
2023-05-02T12:24:59.967Z,59168.00
2023-05-02T12:25:59.693Z,26560.00